Time;durP1;ratioP1;P1;durP2;ratioP2;P2;SDS_P1;SDS_P2;PMS_P1;PMS_P2;Temp;Humidity;BMP_temperature;BMP_pressure;BME280_temperature;BME280_humidity;BME280_pressure;Samples;Min_cycle;Max_cycle;Signal;HPM_P1;HPM_P2
2023/02/09 00:00:32;;;;;;;59.85;33.22;;;-0.20;99.90;;;;;;5062954;28;20273;-72
2023/02/09 00:02:59;;;;;;;58.55;32.50;;;-0.10;99.90;;;;;;5067435;28;20658;-72
2023/02/09 00:05:25;;;;;;;64.68;35.85;;;-0.20;99.90;;;;;;5064248;28;20306;-70
2023/02/09 00:07:52;;;;;;;60.40;35.90;;;-0.10;99.90;;;;;;5067900;28;20294;-71
2023/02/09 00:10:19;;;;;;;62.50;33.15;;;-0.10;99.90;;;;;;5062844;28;20290;-71
2023/02/09 00:15:32;;;;;;;63.88;32.10;;;-0.10;99.90;;;;;;5065680;28;20324;-72
2023/02/09 00:17:58;;;;;;;52.17;34.55;;;-0.20;99.90;;;;;;5066742;28;20289;-71
2023/02/09 00:20:25;;;;;;;57.00;31.25;;;-0.20;99.90;;;;;;5067430;28;20246;-72
2023/02/09 00:22:52;;;;;;;56.90;34.08;;;-0.20;99.90;;;;;;5063719;28;20206;-71
2023/02/09 00:25:19;;;;;;;63.17;32.63;;;-0.20;99.90;;;;;;5055934;28;20302;-72
2023/02/09 00:27:47;;;;;;;49.00;31.63;;;-0.30;99.90;;;;;;5063946;28;20293;-71
2023/02/09 00:30:15;;;;;;;50.50;35.35;;;-0.30;99.90;;;;;;5055893;28;20205;-72
2023/02/09 00:32:42;;;;;;;58.45;33.00;;;-0.30;99.90;;;;;;5057581;28;20196;-74
2023/02/09 00:35:10;;;;;;;58.95;33.47;;;-0.30;99.90;;;;;;5060285;28;20211;-73
2023/02/09 00:37:37;;;;;;;55.90;31.83;;;-0.30;99.90;;;;;;5061359;28;20705;-73
2023/02/09 00:40:05;;;;;;;55.83;31.95;;;-0.20;99.90;;;;;;5070998;28;20291;-73
2023/02/09 00:42:32;;;;;;;55.80;32.85;;;-0.30;99.90;;;;;;5065116;28;20666;-73
2023/02/09 00:45:01;;;;;;;62.83;33.47;;;-0.30;99.90;;;;;;5057460;28;20303;-73
2023/02/09 00:47:28;;;;;;;55.38;30.42;;;-0.30;99.90;;;;;;5049841;28;20287;-73
2023/02/09 00:49:56;;;;;;;53.33;32.78;;;-0.40;99.90;;;;;;5051491;28;20294;-72
2023/02/09 00:52:23;;;;;;;56.78;32.35;;;-0.40;99.90;;;;;;5057183;28;20202;-73
2023/02/09 00:54:50;;;;;;;60.58;34.47;;;-0.40;99.90;;;;;;5065683;28;20241;-72
2023/02/09 00:57:19;;;;;;;58.83;31.33;;;-0.50;99.90;;;;;;5063611;28;20205;-73
2023/02/09 00:59:46;;;;;;;59.50;31.67;;;-0.50;99.90;;;;;;5053840;28;20196;-72
2023/02/09 01:02:14;;;;;;;54.65;31.52;;;-0.50;99.90;;;;;;5053835;28;20199;-72
2023/02/09 01:04:42;;;;;;;54.38;33.42;;;-0.50;99.90;;;;;;5056685;28;20229;-73
2023/02/09 01:07:09;;;;;;;52.55;29.75;;;-0.40;99.90;;;;;;5053137;28;20224;-74
2023/02/09 01:09:36;;;;;;;47.35;28.23;;;-0.60;99.90;;;;;;5053691;28;20212;-71
2023/02/09 01:12:04;;;;;;;54.03;30.08;;;-0.50;99.90;;;;;;5053997;28;20294;-71
2023/02/09 01:14:31;;;;;;;48.85;30.63;;;-0.50;99.90;;;;;;5053816;28;20291;-72
2023/02/09 01:16:58;;;;;;;55.15;30.35;;;-0.50;99.90;;;;;;5055196;28;20306;-71
2023/02/09 01:19:26;;;;;;;54.90;29.73;;;-0.40;99.90;;;;;;5052757;28;20211;-72
2023/02/09 01:21:54;;;;;;;52.03;28.50;;;-0.50;99.90;;;;;;5047040;28;20314;-72
2023/02/09 01:24:21;;;;;;;48.58;28.88;;;-0.50;99.90;;;;;;5053036;28;20288;-70
2023/02/09 01:26:49;;;;;;;51.20;30.92;;;-0.60;99.90;;;;;;5053579;28;20281;-73
2023/02/09 01:29:18;;;;;;;52.13;28.77;;;-0.50;99.90;;;;;;5053849;28;20288;-73
2023/02/09 01:31:46;;;;;;;44.83;27.35;;;-0.60;99.90;;;;;;5044913;28;20299;-73
2023/02/09 01:34:17;;;;;;;50.65;29.27;;;-0.50;99.90;;;;;;5052434;28;20291;-74
2023/02/09 01:36:47;;;;;;;47.65;29.08;;;-0.50;99.90;;;;;;5049919;28;20247;-70
2023/02/09 04:42:37;;;;;;;18.80;11.65;;;-0.80;99.90;;;;;;5045656;28;20234;-87
2023/02/09 05:59:54;;;;;;;18.35;9.98;;;0.30;99.90;;;;;;4907084;29;20200;-86
2023/02/09 06:15:54;;;;;;;17.17;9.60;;;0.50;99.90;;;;;;5010429;22;20234;-71
2023/02/09 06:18:21;;;;;;;12.48;9.10;;;0.50;99.90;;;;;;5042406;28;20198;-72
2023/02/09 06:20:48;;;;;;;15.98;9.98;;;0.50;99.90;;;;;;5039935;28;20249;-71
2023/02/09 06:23:15;;;;;;;15.40;10.00;;;0.40;99.90;;;;;;5049806;28;20290;-71
2023/02/09 06:25:42;;;;;;;15.95;8.90;;;0.40;99.90;;;;;;5048941;28;20270;-73
2023/02/09 06:28:09;;;;;;;13.75;9.30;;;0.50;99.90;;;;;;5041868;28;20196;-70
2023/02/09 06:30:36;;;;;;;17.48;9.18;;;0.50;99.90;;;;;;5050368;28;20210;-71
2023/02/09 06:33:04;;;;;;;18.80;9.23;;;0.50;99.90;;;;;;5049955;28;20211;-71
2023/02/09 06:35:33;;;;;;;17.50;11.20;;;0.50;99.90;;;;;;5045441;28;20256;-72
2023/02/09 06:38:00;;;;;;;15.60;9.60;;;0.60;99.90;;;;;;5050282;28;20230;-72
2023/02/09 06:40:28;;;;;;;14.77;8.80;;;0.60;99.90;;;;;;5045697;28;20211;-73
2023/02/09 06:42:54;;;;;;;15.00;9.73;;;0.60;99.90;;;;;;5041788;28;20259;-70
2023/02/09 06:45:21;;;;;;;14.40;8.15;;;0.70;99.90;;;;;;5047663;28;20741;-73
2023/02/09 06:47:48;;;;;;;15.32;8.45;;;0.70;99.90;;;;;;5049072;28;20282;-72
2023/02/09 06:50:17;;;;;;;14.30;9.60;;;0.80;99.90;;;;;;5050921;28;20211;-73
2023/02/09 06:52:45;;;;;;;19.17;9.73;;;0.80;99.90;;;;;;5051822;28;20304;-72
2023/02/09 06:55:13;;;;;;;16.88;10.75;;;0.70;99.90;;;;;;5050886;28;20262;-73
2023/02/09 06:57:40;;;;;;;21.27;10.48;;;0.70;99.90;;;;;;5050744;28;20206;-72
2023/02/09 07:00:09;;;;;;;14.93;8.40;;;0.80;99.90;;;;;;5050311;28;20282;-72
2023/02/09 07:02:36;;;;;;;18.10;9.73;;;0.80;99.90;;;;;;5049168;28;20639;-71
2023/02/09 07:05:04;;;;;;;14.93;9.48;;;0.80;99.90;;;;;;5050087;28;20258;-71
2023/02/09 07:07:33;;;;;;;17.45;10.68;;;0.90;99.90;;;;;;5055421;28;20205;-73
2023/02/09 07:10:00;;;;;;;16.75;9.25;;;0.80;99.90;;;;;;5054888;28;20662;-70
2023/02/09 07:12:26;;;;;;;18.88;9.55;;;0.90;99.90;;;;;;5051200;28;20290;-73
2023/02/09 07:14:54;;;;;;;19.20;11.75;;;0.90;99.90;;;;;;5050935;28;20302;-70
2023/02/09 07:17:21;;;;;;;24.38;10.73;;;0.90;99.90;;;;;;5052207;28;20282;-73
2023/02/09 07:19:48;;;;;;;13.40;8.90;;;1.00;99.90;;;;;;5050542;28;20578;-69
2023/02/09 07:22:15;;;;;;;14.30;9.52;;;1.00;99.90;;;;;;5048242;28;20571;-73
2023/02/09 07:24:45;;;;;;;16.67;10.90;;;1.10;99.90;;;;;;5053825;28;20200;-73
2023/02/09 07:27:12;;;;;;;16.30;9.80;;;1.10;99.90;;;;;;5046268;28;20590;-73
2023/02/09 07:29:39;;;;;;;15.13;9.45;;;1.00;99.90;;;;;;5047380;28;20607;-75
2023/02/09 07:32:06;;;;;;;13.63;9.25;;;1.10;99.90;;;;;;5051468;28;20203;-79
2023/02/09 07:34:33;;;;;;;13.75;9.30;;;1.20;99.90;;;;;;5051782;28;20587;-76
2023/02/09 07:37:02;;;;;;;17.60;9.23;;;1.40;99.90;;;;;;5051215;28;20685;-77
2023/02/09 07:42:32;;;;;;;15.23;9.43;;;1.40;99.90;;;;;;5063319;28;20196;-87
2023/02/09 07:44:59;;;;;;;16.45;10.20;;;1.30;99.90;;;;;;5064122;28;20242;-87
2023/02/09 07:47:26;;;;;;;16.23;9.05;;;1.40;99.90;;;;;;5062741;28;20246;-86
2023/02/09 07:49:52;;;;;;;14.23;9.55;;;1.50;99.90;;;;;;5066800;28;20488;-86
2023/02/09 07:52:19;;;;;;;16.70;9.63;;;1.60;99.90;;;;;;5062617;28;20634;-87
2023/02/09 07:54:48;;;;;;;16.90;10.63;;;1.60;99.90;;;;;;5066094;28;20242;-86
2023/02/09 07:57:15;;;;;;;19.63;11.13;;;1.80;99.90;;;;;;5070252;28;20227;-85
2023/02/09 07:59:44;;;;;;;19.00;10.18;;;2.10;99.90;;;;;;5068139;28;20214;-86
2023/02/09 08:02:23;;;;;;;21.38;11.23;;;2.20;99.90;;;;;;5065437;28;20204;-86
2023/02/09 08:04:50;;;;;;;20.55;10.45;;;2.50;99.90;;;;;;5060569;28;20219;-86
2023/02/09 08:07:17;;;;;;;17.00;10.30;;;2.70;99.90;;;;;;5071900;28;20234;-85
2023/02/09 08:09:45;;;;;;;15.55;10.40;;;2.80;99.90;;;;;;5073446;28;20219;-87
2023/02/09 08:12:12;;;;;;;16.33;10.05;;;2.90;99.90;;;;;;5069416;28;20186;-87
2023/02/09 08:14:46;;;;;;;17.55;9.55;;;3.00;99.90;;;;;;5068737;28;20184;-87
2023/02/09 08:17:23;;;;;;;18.83;11.27;;;3.30;99.90;;;;;;5061779;28;20663;-86
2023/02/09 08:19:57;;;;;;;19.73;10.85;;;3.30;99.90;;;;;;5064477;28;20207;-88
2023/02/09 08:22:27;;;;;;;15.60;10.40;;;3.40;99.90;;;;;;5067469;28;20245;-86
2023/02/09 08:24:54;;;;;;;17.48;10.60;;;3.90;99.90;;;;;;5066736;28;20286;-84
2023/02/09 08:27:22;;;;;;;16.75;10.40;;;4.00;99.90;;;;;;5066934;28;20220;-87
2023/02/09 08:29:52;;;;;;;19.17;11.85;;;4.30;98.40;;;;;;5044975;28;20234;-86
2023/02/09 08:32:37;;;;;;;14.88;9.93;;;4.60;97.60;;;;;;5050616;28;20196;-89
2023/02/09 08:35:04;;;;;;;16.10;9.35;;;5.20;96.20;;;;;;5067169;28;20238;-88
2023/02/09 08:37:39;;;;;;;13.63;9.57;;;4.90;95.00;;;;;;5050456;28;20234;-88
2023/02/09 08:43:11;;;;;;;13.93;9.40;;;5.30;95.00;;;;;;5052066;28;20220;-77
2023/02/09 08:45:40;;;;;;;20.58;13.57;;;5.00;94.70;;;;;;5049332;28;20325;-74
2023/02/09 08:48:09;;;;;;;17.55;10.55;;;5.40;94.90;;;;;;5046241;28;20201;-74
2023/02/09 08:50:36;;;;;;;17.58;10.43;;;5.40;94.40;;;;;;5041230;28;20222;-76
2023/02/09 08:53:03;;;;;;;15.55;9.73;;;5.80;93.60;;;;;;5046880;28;20295;-72
2023/02/09 08:55:32;;;;;;;15.32;9.73;;;6.40;93.40;;;;;;5049668;28;20219;-76
2023/02/09 08:58:00;;;;;;;23.92;12.75;;;6.10;91.90;;;;;;5050912;28;20747;-77
2023/02/09 09:00:27;;;;;;;20.38;11.65;;;6.00;92.60;;;;;;5045561;28;20214;-73
2023/02/09 09:02:54;;;;;;;18.67;10.65;;;6.30;92.60;;;;;;5044435;28;20249;-73
2023/02/09 09:05:24;;;;;;;16.65;10.05;;;6.10;91.80;;;;;;5049920;28;20219;-76
2023/02/09 09:07:51;;;;;;;16.80;11.38;;;6.30;92.00;;;;;;5047970;28;20238;-75
2023/02/09 09:10:18;;;;;;;19.15;10.13;;;6.00;91.70;;;;;;5050881;28;20675;-73
2023/02/09 09:12:45;;;;;;;17.80;10.65;;;5.90;92.40;;;;;;5048264;28;20632;-75
2023/02/09 09:15:18;;;;;;;11.60;9.43;;;6.60;92.20;;;;;;5049839;28;20306;-74
2023/02/09 09:17:45;;;;;;;15.52;11.18;;;6.30;91.10;;;;;;5054058;28;20238;-78
2023/02/09 09:20:13;;;;;;;22.60;11.60;;;6.70;90.90;;;;;;5048482;28;20581;-75
2023/02/09 09:22:42;;;;;;;21.05;10.13;;;7.00;90.50;;;;;;5043113;28;20701;-76
2023/02/09 09:25:09;;;;;;;20.10;11.48;;;7.10;90.10;;;;;;5053420;28;20227;-77
2023/02/09 09:27:36;;;;;;;17.17;10.82;;;7.10;89.90;;;;;;5051806;28;20326;-76
2023/02/09 09:30:05;;;;;;;15.65;9.77;;;6.80;89.70;;;;;;5053175;28;20207;-75
2023/02/09 09:32:33;;;;;;;14.38;10.13;;;7.10;89.20;;;;;;5052785;28;20279;-74
2023/02/09 09:35:01;;;;;;;12.93;9.27;;;6.90;89.50;;;;;;5051813;28;20241;-77
2023/02/09 09:37:28;;;;;;;16.83;10.75;;;6.50;90.10;;;;;;5052464;28;20579;-74
2023/02/09 09:39:56;;;;;;;15.48;11.30;;;6.60;90.60;;;;;;5052209;28;20234;-71
2023/02/09 09:42:31;;;;;;;21.83;10.68;;;6.90;90.40;;;;;;5049185;28;20293;-74
2023/02/09 09:44:58;;;;;;;26.95;12.38;;;6.80;90.10;;;;;;5051525;28;20292;-76
2023/02/09 09:47:35;;;;;;;28.48;12.00;;;6.80;90.20;;;;;;5054101;28;20231;-75
2023/02/09 09:50:06;;;;;;;17.88;11.35;;;6.90;90.00;;;;;;5047140;28;20293;-73
2023/02/09 09:52:38;;;;;;;18.63;11.15;;;6.90;90.00;;;;;;5044194;28;20218;-75
2023/02/09 09:55:09;;;;;;;16.45;9.68;;;7.00;90.10;;;;;;5040341;28;20228;-74
2023/02/09 09:57:41;;;;;;;17.77;10.57;;;7.30;89.50;;;;;;5043292;28;20232;-76
2023/02/09 10:00:17;;;;;;;15.80;11.23;;;7.20;88.90;;;;;;5051210;28;20214;-77
2023/02/09 10:02:45;;;;;;;14.75;10.57;;;7.30;88.30;;;;;;5040131;28;20265;-73
2023/02/09 10:05:18;;;;;;;14.20;10.38;;;7.50;88.80;;;;;;5045968;28;20296;-74
2023/02/09 10:07:54;;;;;;;22.10;11.10;;;7.50;87.50;;;;;;5045379;28;20215;-74
2023/02/09 10:10:33;;;;;;;17.25;10.75;;;7.90;88.30;;;;;;5044783;28;20683;-78
2023/02/09 10:13:07;;;;;;;15.23;10.00;;;7.70;86.50;;;;;;5049787;28;20252;-77
2023/02/09 10:15:36;;;;;;;14.48;10.55;;;7.70;86.60;;;;;;5047707;28;20306;-77
2023/02/09 10:18:11;;;;;;;17.80;12.27;;;7.50;86.60;;;;;;5047343;28;20231;-72
2023/02/09 10:20:48;;;;;;;14.90;10.25;;;7.80;87.80;;;;;;5050183;28;20203;-75
2023/02/09 10:23:22;;;;;;;36.50;11.32;;;8.30;86.40;;;;;;5048332;28;20207;-78
2023/02/09 10:26:02;;;;;;;17.77;10.98;;;8.30;85.50;;;;;;5051333;28;20281;-75
2023/02/09 10:28:31;;;;;;;16.52;11.23;;;7.50;85.70;;;;;;5049729;28;20749;-74
2023/02/09 10:31:00;;;;;;;21.17;11.82;;;8.10;86.60;;;;;;5051542;28;20204;-72
2023/02/09 10:33:29;;;;;;;17.05;11.05;;;7.70;86.40;;;;;;5050020;28;20298;-75
2023/02/09 10:35:59;;;;;;;15.90;10.68;;;7.20;86.80;;;;;;5051755;28;20287;-74
2023/02/09 10:38:31;;;;;;;17.75;11.32;;;6.70;87.90;;;;;;5047683;28;20299;-73
2023/02/09 10:41:00;;;;;;;15.75;10.55;;;6.30;89.60;;;;;;5048371;28;20199;-73
2023/02/09 10:43:31;;;;;;;20.80;10.43;;;6.10;90.30;;;;;;5049509;28;20260;-73
2023/02/09 10:46:00;;;;;;;14.73;9.82;;;6.10;90.50;;;;;;5046367;28;20233;-74
2023/02/09 10:48:29;;;;;;;15.68;10.63;;;6.00;90.50;;;;;;5047655;28;20208;-74
2023/02/09 10:50:59;;;;;;;19.50;10.50;;;5.80;90.80;;;;;;5047827;28;20677;-72
2023/02/09 10:53:28;;;;;;;16.33;10.75;;;6.00;91.40;;;;;;5051232;28;20583;-73
2023/02/09 10:56:06;;;;;;;17.27;11.63;;;6.30;91.40;;;;;;5052214;28;20295;-74
2023/02/09 10:58:34;;;;;;;18.50;10.50;;;6.70;90.70;;;;;;5050978;28;20271;-74
2023/02/09 11:01:16;;;;;;;15.50;11.38;;;6.50;90.80;;;;;;5044224;28;20217;-75
2023/02/09 11:03:58;;;;;;;15.45;11.35;;;6.50;90.70;;;;;;5051809;28;20210;-77
2023/02/09 11:06:25;;;;;;;14.52;11.13;;;6.60;90.90;;;;;;5052202;28;20227;-74
2023/02/09 11:08:57;;;;;;;17.23;10.65;;;6.70;90.80;;;;;;5052398;28;20214;-74
2023/02/09 11:11:30;;;;;;;19.40;10.60;;;6.80;90.50;;;;;;5051153;28;20695;-76
2023/02/09 11:13:58;;;;;;;16.60;11.70;;;7.00;90.50;;;;;;5052501;28;20202;-74
2023/02/09 11:16:49;;;;;;;16.27;10.80;;;6.30;90.40;;;;;;5052393;28;20257;-74
2023/02/09 11:19:56;;;;;;;16.02;11.00;;;6.10;90.90;;;;;;5051899;28;20201;-74
2023/02/09 11:22:44;;;;;;;16.90;12.95;;;6.00;91.40;;;;;;5009708;28;20641;-75
2023/02/09 11:25:19;;;;;;;14.60;10.52;;;6.00;91.30;;;;;;5051720;28;20225;-74
2023/02/09 11:27:58;;;;;;;19.70;11.57;;;5.80;91.20;;;;;;5042717;28;20312;-74
2023/02/09 11:30:41;;;;;;;14.45;10.60;;;5.80;91.50;;;;;;5051175;28;20233;-74
2023/02/09 11:33:16;;;;;;;17.50;11.07;;;5.70;91.60;;;;;;5051163;28;20206;-75
2023/02/09 11:35:52;;;;;;;19.00;11.02;;;5.70;91.90;;;;;;5051145;28;20711;-74
2023/02/09 11:38:31;;;;;;;21.88;10.65;;;5.50;91.80;;;;;;5050365;28;20287;-75
2023/02/09 11:42:42;;;;;;;20.08;10.40;;;5.40;92.40;;;;;;5038697;28;20574;-77
2023/02/09 11:43:50;;;;;;;18.95;9.80;;;5.40;92.60;;;;;;5050141;28;20220;-75
2023/02/09 11:46:22;;;;;;;18.65;11.43;;;5.50;92.60;;;;;;5051517;28;20227;-76
2023/02/09 11:48:54;;;;;;;21.23;11.13;;;5.60;92.70;;;;;;5051269;28;20664;-73
2023/02/09 11:51:24;;;;;;;12.75;10.15;;;5.60;92.50;;;;;;5053803;28;20288;-75
2023/02/09 11:53:58;;;;;;;17.08;10.95;;;5.60;92.40;;;;;;5055341;28;20220;-75
2023/02/09 11:56:26;;;;;;;16.70;10.32;;;5.60;92.60;;;;;;5054053;28;20555;-73
2023/02/09 11:59:00;;;;;;;12.85;9.25;;;5.80;92.40;;;;;;5055519;28;20625;-74
2023/02/09 12:01:43;;;;;;;18.15;10.65;;;5.80;92.30;;;;;;5052644;28;20200;-76
2023/02/09 12:04:19;;;;;;;29.60;13.10;;;5.70;92.60;;;;;;5053159;28;20207;-76
2023/02/09 12:06:49;;;;;;;19.02;11.40;;;5.70;92.60;;;;;;5052372;28;20219;-76
2023/02/09 12:09:31;;;;;;;15.93;10.98;;;5.60;92.60;;;;;;5054283;28;20232;-75
2023/02/09 12:12:10;;;;;;;14.70;9.75;;;5.70;93.10;;;;;;5049738;28;20562;-74
2023/02/09 12:15:10;;;;;;;23.35;10.80;;;5.70;93.00;;;;;;5054471;28;20200;-75
2023/02/09 12:17:46;;;;;;;21.25;12.85;;;5.70;93.00;;;;;;5050284;28;20265;-73
2023/02/09 12:20:31;;;;;;;18.45;11.35;;;5.90;93.10;;;;;;5053301;28;20288;-76
2023/02/09 12:23:06;;;;;;;25.75;11.50;;;6.10;92.80;;;;;;5050512;28;20288;-77
2023/02/09 12:25:50;;;;;;;17.02;11.00;;;6.00;92.60;;;;;;5053191;28;20236;-78
2023/02/09 12:28:34;;;;;;;20.55;11.32;;;5.90;92.80;;;;;;5054085;28;20776;-74
2023/02/09 12:31:21;;;;;;;24.55;11.02;;;6.20;93.10;;;;;;5051821;28;20267;-75
2023/02/09 12:34:28;;;;;;;21.35;11.43;;;6.30;92.70;;;;;;5050413;28;20205;-75
2023/02/09 12:37:27;;;;;;;16.13;11.25;;;6.30;92.70;;;;;;4989453;28;20227;-75
2023/02/09 12:40:22;;;;;;;23.05;10.90;;;6.20;92.70;;;;;;5046540;28;20292;-73
2023/02/09 12:43:27;;;;;;;23.15;11.00;;;6.10;92.90;;;;;;4976226;28;20225;-76
2023/02/09 12:46:15;;;;;;;16.95;11.50;;;6.20;92.70;;;;;;5053982;28;20224;-74
2023/02/09 12:48:59;;;;;;;16.83;11.60;;;6.20;93.00;;;;;;5054056;28;20225;-76
2023/02/09 12:51:51;;;;;;;17.05;11.55;;;6.30;93.00;;;;;;5052119;28;20214;-74
2023/02/09 12:54:31;;;;;;;23.20;10.77;;;6.30;92.90;;;;;;5050759;28;20310;-75
2023/02/09 12:57:43;;;;;;;15.57;11.50;;;6.20;93.10;;;;;;5042821;28;20222;-75
2023/02/09 13:00:49;;;;;;;20.70;11.45;;;6.00;93.10;;;;;;5006530;28;20747;-75
2023/02/09 13:03:21;;;;;;;16.40;10.50;;;5.90;93.40;;;;;;5043642;28;20204;-75
2023/02/09 13:05:50;;;;;;;19.15;11.93;;;5.80;93.40;;;;;;5046601;28;20320;-75
2023/02/09 13:08:27;;;;;;;19.88;12.10;;;5.60;93.70;;;;;;5051393;28;20683;-77
2023/02/09 13:11:02;;;;;;;14.75;11.35;;;5.60;94.20;;;;;;5043241;28;20554;-76
2023/02/09 13:13:45;;;;;;;15.15;10.23;;;5.60;94.40;;;;;;5046586;28;20624;-74
2023/02/09 13:16:49;;;;;;;22.42;11.95;;;5.60;94.50;;;;;;5044804;28;20311;-75
2023/02/09 13:19:40;;;;;;;16.52;10.27;;;5.50;94.50;;;;;;5050023;28;20260;-75
2023/02/09 13:22:32;;;;;;;20.35;11.43;;;5.50;95.00;;;;;;5052444;28;20297;-74
2023/02/09 13:25:00;;;;;;;20.05;13.63;;;5.40;94.90;;;;;;5048723;28;20251;-75
2023/02/09 13:27:28;;;;;;;27.20;15.27;;;5.50;95.40;;;;;;5045788;28;20686;-76
2023/02/09 13:29:57;;;;;;;20.58;11.43;;;5.50;95.30;;;;;;5048777;28;20210;-75
2023/02/09 13:32:36;;;;;;;20.15;11.88;;;5.60;95.50;;;;;;5050770;28;20747;-77
2023/02/09 13:35:14;;;;;;;17.50;10.73;;;5.80;95.50;;;;;;5049784;28;20287;-76
2023/02/09 13:37:46;;;;;;;22.10;11.43;;;5.90;95.30;;;;;;5070164;22;20291;-86
2023/02/09 13:40:17;;;;;;;19.80;11.35;;;6.00;95.10;;;;;;5081650;28;20641;-84
2023/02/09 13:42:56;;;;;;;19.25;11.85;;;5.90;94.80;;;;;;5087666;28;20227;-84
2023/02/09 13:45:25;;;;;;;16.40;11.38;;;6.10;94.80;;;;;;5087008;28;20221;-85
2023/02/09 13:47:52;;;;;;;15.13;11.10;;;5.90;94.60;;;;;;5094277;28;20230;-85
2023/02/09 13:50:22;;;;;;;21.60;14.00;;;6.10;94.50;;;;;;5089947;28;20207;-84
2023/02/09 13:52:51;;;;;;;14.60;11.73;;;5.90;94.80;;;;;;5093077;28;20195;-85
2023/02/09 13:55:21;;;;;;;22.75;12.85;;;5.90;94.60;;;;;;5091775;28;20258;-84
2023/02/09 13:57:54;;;;;;;20.48;12.88;;;5.90;94.80;;;;;;5089905;28;20208;-86
2023/02/09 14:00:25;;;;;;;21.73;14.30;;;5.90;94.80;;;;;;5082637;28;20220;-84
2023/02/09 14:02:55;;;;;;;19.17;12.65;;;6.00;94.60;;;;;;5084728;28;20648;-83
2023/02/09 14:05:32;;;;;;;18.95;11.55;;;5.90;94.60;;;;;;5081102;28;20223;-84
2023/02/09 14:08:01;;;;;;;17.13;10.13;;;5.70;94.70;;;;;;5090744;28;20227;-83
2023/02/09 14:10:30;;;;;;;17.50;13.55;;;5.60;95.10;;;;;;5099496;28;20203;-83
2023/02/09 14:13:02;;;;;;;18.65;11.15;;;5.70;95.30;;;;;;5078404;28;20195;-84
2023/02/09 14:18:29;;;;;;;18.33;12.15;;;5.60;95.30;;;;;;5088268;28;20654;-85
2023/02/09 14:21:02;;;;;;;21.45;12.95;;;5.50;95.60;;;;;;5074941;28;20213;-86
2023/02/09 14:23:33;;;;;;;23.35;12.30;;;5.60;95.70;;;;;;5088344;28;20354;-82
2023/02/09 14:26:03;;;;;;;19.30;12.48;;;5.60;95.60;;;;;;5090199;28;20222;-83
2023/02/09 14:28:30;;;;;;;19.50;13.93;;;5.60;95.70;;;;;;5083027;28;20207;-84
2023/02/09 14:30:59;;;;;;;21.65;13.00;;;5.70;95.80;;;;;;5082670;28;20239;-84
2023/02/09 14:33:27;;;;;;;16.95;11.05;;;5.70;95.80;;;;;;5084908;28;20300;-83
2023/02/09 14:35:58;;;;;;;18.70;11.10;;;5.80;95.80;;;;;;5076142;28;20291;-85
2023/02/09 14:38:41;;;;;;;17.65;11.85;;;5.40;95.50;;;;;;5083348;28;20211;-85
2023/02/09 14:41:19;;;;;;;17.73;11.07;;;5.50;95.80;;;;;;5100189;28;20227;-86
2023/02/09 14:43:58;;;;;;;23.17;11.73;;;5.60;95.90;;;;;;5100170;28;20202;-84
2023/02/09 14:46:25;;;;;;;17.90;11.25;;;5.40;95.90;;;;;;5099792;28;20219;-84
2023/02/09 14:48:59;;;;;;;18.48;11.80;;;5.40;96.10;;;;;;5087523;28;20253;-85
2023/02/09 14:51:27;;;;;;;24.67;13.30;;;5.30;96.40;;;;;;5109303;28;20191;-86
2023/02/09 14:53:55;;;;;;;20.27;12.50;;;5.40;96.50;;;;;;5094083;28;20283;-86
2023/02/09 14:56:27;;;;;;;17.27;12.18;;;5.30;96.60;;;;;;5100119;28;20234;-84
2023/02/09 14:58:54;;;;;;;19.23;12.65;;;5.30;96.80;;;;;;5095808;28;20237;-86
2023/02/09 15:01:21;;;;;;;26.08;13.70;;;5.20;97.00;;;;;;5094764;28;20184;-85
2023/02/09 15:03:48;;;;;;;17.70;12.30;;;5.20;97.20;;;;;;5109217;28;20199;-86
2023/02/09 15:06:15;;;;;;;20.35;13.05;;;5.20;97.50;;;;;;5100597;28;20223;-85
2023/02/09 15:08:43;;;;;;;19.25;12.60;;;5.10;97.50;;;;;;5095003;28;20223;-86
2023/02/09 15:14:05;;;;;;;24.17;14.80;;;5.10;97.70;;;;;;5103011;28;20644;-86
2023/02/09 15:16:32;;;;;;;23.85;13.00;;;5.00;97.80;;;;;;5095202;28;20290;-86
2023/02/09 15:19:02;;;;;;;18.95;12.48;;;5.10;97.80;;;;;;5104069;28;20191;-89
2023/02/09 15:21:29;;;;;;;20.77;15.07;;;5.30;97.90;;;;;;5096971;28;20194;-87
2023/02/09 15:23:56;;;;;;;21.90;14.63;;;5.10;97.70;;;;;;5086271;28;20194;-86
2023/02/09 15:26:26;;;;;;;20.95;13.30;;;5.10;97.80;;;;;;5107607;28;20222;-87
2023/02/09 15:28:53;;;;;;;23.05;16.52;;;5.10;98.00;;;;;;5099275;28;20238;-87
2023/02/09 15:31:20;;;;;;;24.95;15.05;;;5.10;98.00;;;;;;5080653;28;20204;-88
2023/02/09 15:33:47;;;;;;;17.60;13.77;;;5.10;98.30;;;;;;5109309;28;20187;-86
2023/02/09 15:36:19;;;;;;;23.50;13.88;;;5.10;98.20;;;;;;5095631;28;20199;-88
2023/02/09 15:38:46;;;;;;;23.80;13.52;;;5.20;98.10;;;;;;5088150;28;20217;-89
2023/02/09 15:49:42;;;;;;;29.70;15.00;;;5.00;99.00;;;;;;5062217;28;20207;-84
2023/02/09 15:52:09;;;;;;;24.00;15.75;;;5.00;99.00;;;;;;5090646;28;20195;-85
2023/02/09 15:54:37;;;;;;;21.17;14.18;;;4.90;99.20;;;;;;5098855;28;20572;-84
2023/02/09 15:57:04;;;;;;;19.42;13.07;;;4.90;99.50;;;;;;5088912;28;20215;-82
2023/02/09 15:59:33;;;;;;;27.27;15.32;;;4.90;99.70;;;;;;5088320;28;20238;-84
2023/02/09 16:02:02;;;;;;;23.48;14.35;;;4.90;99.80;;;;;;5083100;28;20206;-83
2023/02/09 16:04:29;;;;;;;26.90;14.93;;;5.10;99.90;;;;;;5088437;28;20226;-85
2023/02/09 16:06:56;;;;;;;23.77;13.63;;;5.00;99.60;;;;;;5087375;28;20258;-83
2023/02/09 16:09:27;;;;;;;19.67;13.70;;;5.00;99.60;;;;;;5089679;28;20219;-84
2023/02/09 16:12:01;;;;;;;22.60;14.13;;;5.00;99.70;;;;;;5082321;28;20245;-83
2023/02/09 16:14:30;;;;;;;22.98;15.95;;;5.00;99.80;;;;;;5091790;28;20672;-83
2023/02/09 16:17:02;;;;;;;25.05;16.30;;;5.00;99.90;;;;;;5089574;28;20320;-84
2023/02/09 16:19:31;;;;;;;29.93;15.67;;;5.00;99.90;;;;;;5093332;28;20098;-86
2023/02/09 16:22:01;;;;;;;22.45;15.68;;;5.00;99.90;;;;;;5093605;28;20453;-84
2023/02/09 16:24:31;;;;;;;21.25;14.65;;;5.00;99.90;;;;;;5084107;28;20203;-84
2023/02/09 16:27:01;;;;;;;22.00;13.70;;;5.00;99.90;;;;;;5080624;28;20227;-84
2023/02/09 16:29:28;;;;;;;22.45;14.65;;;4.90;99.90;;;;;;5079107;28;20223;-87
2023/02/09 16:32:15;;;;;;;26.35;17.05;;;4.90;99.90;;;;;;5091289;28;20205;-81
2023/02/09 16:34:43;;;;;;;23.00;13.05;;;4.70;99.90;;;;;;5091467;28;20640;-83
2023/02/09 16:37:15;;;;;;;18.48;13.15;;;4.90;99.90;;;;;;5087244;28;20214;-83
2023/02/09 16:39:44;;;;;;;19.05;13.32;;;4.90;99.90;;;;;;5080714;28;20207;-83
2023/02/09 16:42:14;;;;;;;20.45;14.00;;;4.90;99.90;;;;;;5089694;28;20207;-83
2023/02/09 16:44:42;;;;;;;29.02;14.82;;;4.90;99.90;;;;;;5089991;28;20211;-82
2023/02/09 16:47:18;;;;;;;17.30;13.85;;;4.90;99.90;;;;;;5095153;28;20213;-84
2023/02/09 16:49:52;;;;;;;21.10;14.10;;;4.90;99.90;;;;;;5086833;28;20217;-85
2023/02/09 16:52:24;;;;;;;21.30;15.45;;;4.90;99.90;;;;;;5089868;22;20227;-72
2023/02/09 16:54:55;;;;;;;18.98;13.70;;;5.00;99.90;;;;;;5062441;28;20199;-73
2023/02/09 16:57:24;;;;;;;24.00;14.68;;;5.00;99.90;;;;;;5064668;28;20204;-73
2023/02/09 16:59:52;;;;;;;19.95;14.43;;;5.00;99.90;;;;;;5064201;28;20204;-74
2023/02/09 17:02:37;;;;;;;26.40;14.68;;;4.90;99.90;;;;;;5062628;28;20208;-73
2023/02/09 17:05:16;;;;;;;20.77;13.68;;;4.90;99.90;;;;;;5059187;28;20231;-72
2023/02/09 17:07:44;;;;;;;23.98;14.55;;;4.90;99.90;;;;;;5066703;28;20294;-74
2023/02/09 17:10:17;;;;;;;23.95;14.20;;;4.90;99.90;;;;;;5072208;28;20203;-72
2023/02/09 17:12:47;;;;;;;26.02;16.23;;;4.90;99.90;;;;;;5063882;28;20286;-73
2023/02/09 17:15:15;;;;;;;22.90;15.10;;;4.90;99.90;;;;;;5072298;28;20305;-73
2023/02/09 17:17:47;;;;;;;23.02;14.90;;;5.00;99.90;;;;;;5065198;28;20307;-72
2023/02/09 17:20:17;;;;;;;26.65;15.38;;;5.00;99.90;;;;;;5058915;28;20203;-75
2023/02/09 17:22:44;;;;;;;23.42;14.40;;;5.00;99.90;;;;;;5060729;28;20255;-74
2023/02/09 17:25:15;;;;;;;25.67;15.57;;;5.00;99.90;;;;;;5062761;28;20304;-73
2023/02/09 17:27:42;;;;;;;34.45;15.80;;;5.00;99.90;;;;;;5066933;28;20223;-73
2023/02/09 17:30:11;;;;;;;20.27;14.50;;;5.00;99.90;;;;;;5066301;28;20261;-73
2023/02/09 17:32:39;;;;;;;24.70;14.63;;;4.90;99.90;;;;;;5058064;28;20212;-75
2023/02/09 17:35:14;;;;;;;24.27;15.52;;;4.90;99.90;;;;;;5071389;28;20236;-71
2023/02/09 17:37:41;;;;;;;24.35;14.15;;;4.90;99.90;;;;;;5061039;28;20308;-75
2023/02/09 17:40:13;;;;;;;28.13;15.68;;;4.90;99.90;;;;;;5065848;28;20218;-74
2023/02/09 17:42:41;;;;;;;21.52;14.30;;;4.90;99.90;;;;;;5058869;28;20253;-74
2023/02/09 17:45:20;;;;;;;25.33;15.85;;;4.90;99.90;;;;;;5064807;28;20270;-74
2023/02/09 17:47:47;;;;;;;20.85;15.60;;;4.90;99.90;;;;;;5064820;28;20269;-72
2023/02/09 17:50:18;;;;;;;24.80;16.38;;;4.90;99.90;;;;;;5061208;28;20218;-75
2023/02/09 17:52:45;;;;;;;22.65;14.88;;;4.90;99.90;;;;;;5066714;28;20268;-77
2023/02/09 17:55:19;;;;;;;24.63;16.02;;;5.00;99.90;;;;;;5061303;28;20222;-75